createdAt,value
2017-04-14T00:00:48.843Z,26.6
2017-04-14T00:01:48.845Z,26.6
2017-04-14T00:02:50.033Z,26.6
2017-04-14T00:03:48.901Z,26.6
2017-04-14T00:04:48.927Z,26.6
2017-04-14T00:05:50.068Z,26.6
2017-04-14T00:06:49.066Z,26.6
2017-04-14T00:07:50.213Z,26.6
2017-04-14T00:08:49.119Z,26.6
2017-04-14T00:09:50.280Z,26.6
2017-04-14T00:10:49.217Z,26.6
2017-04-14T00:11:49.391Z,26.6
2017-04-14T00:12:50.400Z,26.6
2017-04-14T00:13:50.475Z,26.6
2017-04-14T00:14:49.468Z,26.6
2017-04-14T00:15:50.563Z,26.6
2017-04-14T00:16:50.622Z,26.6
2017-04-14T00:17:50.676Z,26.6
2017-04-14T00:18:50.672Z,26.6
2017-04-14T00:19:49.895Z,26.6
2017-04-14T00:20:50.899Z,26.6
2017-04-14T00:21:50.885Z,26.6
2017-04-14T00:22:50.951Z,26.6
2017-04-14T00:23:49.952Z,26.6
2017-04-14T00:24:49.904Z,26.6
2017-04-14T00:25:51.181Z,26.6
2017-04-14T00:26:51.079Z,26.6
2017-04-14T00:27:51.134Z,26.6
2017-04-14T00:28:51.070Z,26.6
2017-04-14T00:29:51.126Z,26.6
2017-04-14T00:30:51.177Z,26.6
2017-04-14T00:31:51.450Z,26.6
2017-04-14T00:32:51.305Z,26.6
2017-04-14T00:33:50.282Z,26.6
2017-04-14T00:34:51.429Z,26.6
2017-04-14T00:35:50.498Z,26.6
2017-04-14T00:36:50.512Z,26.6
2017-04-14T00:37:50.688Z,26.6
2017-04-14T00:38:51.552Z,26.6
2017-04-14T00:39:51.668Z,26.6
2017-04-14T00:40:51.702Z,26.6
2017-04-14T00:41:51.734Z,26.6
2017-04-14T00:42:50.815Z,26.6
2017-04-14T00:43:52.059Z,26.6
2017-04-14T00:44:50.826Z,26.6
2017-04-14T00:45:51.966Z,26.6
2017-04-14T00:46:51.970Z,26.6
2017-04-14T00:47:52.064Z,26.6
2017-04-14T00:48:52.174Z,26.6
2017-04-14T00:49:51.879Z,26.6
2017-04-14T00:50:52.244Z,26.6
2017-04-14T00:51:51.163Z,26.6
2017-04-14T00:52:52.350Z,26.6
2017-04-14T00:53:51.335Z,26.6
2017-04-14T00:54:52.509Z,26.6
2017-04-14T00:55:52.676Z,26.6
2017-04-14T00:56:52.587Z,26.6
2017-04-14T00:57:51.560Z,26.6
2017-04-14T00:58:51.693Z,26.6
2017-04-14T00:59:51.640Z,26.6
2017-04-14T01:00:51.775Z,26.6
2017-04-14T01:01:51.670Z,26.6
2017-04-14T01:02:53.512Z,26.6
2017-04-14T01:03:51.810Z,26.6
2017-04-14T01:04:51.859Z,26.6
2017-04-14T01:05:51.968Z,26.6
2017-04-14T01:06:51.990Z,26.7
2017-04-14T01:07:53.110Z,26.7
2017-04-14T01:08:52.194Z,26.6
2017-04-14T01:09:53.286Z,26.6
2017-04-14T01:10:53.307Z,26.7
2017-04-14T01:11:52.354Z,26.6
2017-04-14T01:12:52.297Z,26.7
2017-04-14T01:13:52.924Z,26.7
2017-04-14T01:14:52.435Z,26.6
2017-04-14T01:15:52.438Z,26.6
2017-04-14T01:16:52.526Z,26.7
2017-04-14T01:17:52.616Z,26.6
2017-04-14T01:18:53.632Z,26.6
2017-04-14T01:19:53.750Z,26.6
2017-04-14T01:20:53.664Z,26.6
2017-04-14T01:21:53.748Z,26.6
2017-04-14T01:22:53.812Z,26.6
2017-04-14T01:23:52.821Z,26.6
2017-04-14T01:24:52.963Z,26.7
2017-04-14T01:25:52.957Z,26.6
2017-04-14T01:26:53.999Z,26.6
2017-04-14T01:27:54.187Z,26.7
2017-04-14T01:28:54.179Z,26.7
2017-04-14T01:29:54.206Z,26.7
2017-04-14T01:30:54.269Z,26.7
2017-04-14T01:31:53.312Z,26.7
2017-04-14T01:32:54.394Z,26.7
2017-04-14T01:33:53.442Z,26.7
2017-04-14T01:34:53.561Z,26.7
2017-04-14T01:35:53.664Z,26.7
2017-04-14T01:36:54.885Z,26.7
2017-04-14T01:37:54.823Z,26.7
2017-04-14T01:38:54.743Z,26.7
2017-04-14T01:39:53.698Z,26.7
2017-04-14T01:40:54.796Z,26.7
2017-04-14T01:41:54.829Z,26.7
2017-04-14T01:42:54.133Z,26.7
2017-04-14T01:43:54.931Z,26.7
2017-04-14T01:44:53.862Z,26.7
2017-04-14T01:45:54.003Z,26.7
2017-04-14T01:46:54.037Z,26.7
2017-04-14T01:47:53.993Z,26.7
2017-04-14T01:48:54.241Z,26.7
2017-04-14T01:49:53.979Z,26.7
2017-04-14T01:50:54.127Z,26.7
2017-04-14T01:51:55.186Z,26.7
2017-04-14T01:52:54.206Z,26.7
2017-04-14T01:53:54.212Z,26.7
2017-04-14T01:54:55.473Z,26.7
2017-04-14T01:55:54.323Z,26.7
2017-04-14T01:56:55.429Z,26.7
2017-04-14T01:57:55.416Z,26.7
2017-04-14T01:58:54.396Z,26.7
2017-04-14T01:59:55.609Z,26.7
2017-04-14T02:00:54.693Z,26.7
2017-04-14T02:01:55.638Z,26.7
2017-04-14T02:02:54.714Z,26.7
2017-04-14T02:03:54.644Z,26.7
2017-04-14T02:04:54.778Z,26.7
2017-04-14T02:05:54.755Z,26.7
2017-04-14T02:06:56.102Z,26.7
2017-04-14T02:07:55.938Z,26.7
2017-04-14T02:08:56.006Z,26.7
2017-04-14T02:09:56.085Z,26.7
2017-04-14T02:10:54.944Z,26.7
2017-04-14T02:11:55.046Z,26.7
2017-04-14T02:12:56.419Z,26.7
2017-04-14T02:13:55.156Z,26.7
2017-04-14T02:14:55.185Z,26.7
2017-04-14T02:15:56.339Z,26.7
2017-04-14T02:16:56.324Z,26.6
2017-04-14T02:17:56.460Z,26.7
2017-04-14T02:18:56.609Z,26.7
2017-04-14T02:19:56.486Z,26.7
2017-04-14T02:20:56.516Z,26.7
2017-04-14T02:21:56.515Z,26.6
2017-04-14T02:22:55.494Z,26.7
2017-04-14T02:23:55.511Z,26.6
2017-04-14T02:24:55.833Z,26.6
2017-04-14T02:25:55.637Z,26.6
2017-04-14T02:26:56.679Z,26.6
2017-04-14T02:27:56.727Z,26.6
2017-04-14T02:28:56.778Z,26.7
2017-04-14T02:29:56.836Z,26.6
2017-04-14T02:30:57.038Z,26.6
2017-04-14T02:31:55.750Z,26.6
2017-04-14T02:32:56.910Z,26.6
2017-04-14T02:33:55.979Z,26.6
2017-04-14T02:34:56.079Z,26.6
2017-04-14T02:35:57.084Z,26.7
2017-04-14T02:36:57.410Z,26.6
2017-04-14T02:37:56.088Z,26.6
2017-04-14T02:38:56.220Z,26.6
2017-04-14T02:39:56.240Z,26.6
2017-04-14T02:40:57.281Z,26.6
2017-04-14T02:41:57.482Z,26.6
2017-04-14T02:42:56.511Z,26.6
2017-04-14T02:43:57.581Z,26.6
2017-04-14T02:44:57.577Z,26.7
2017-04-14T02:45:56.616Z,26.7
2017-04-14T02:46:56.598Z,26.7
2017-04-14T02:47:57.949Z,26.7
2017-04-14T02:48:57.882Z,26.6
2017-04-14T02:49:56.775Z,26.7
2017-04-14T02:50:57.892Z,26.7
2017-04-14T02:51:56.868Z,26.7
2017-04-14T02:52:56.990Z,26.7
2017-04-14T02:53:58.225Z,26.6
2017-04-14T02:54:56.983Z,26.7
2017-04-14T02:55:57.007Z,26.7
2017-04-14T02:56:58.118Z,26.7
2017-04-14T02:57:58.205Z,26.7
2017-04-14T02:58:57.222Z,26.7
2017-04-14T02:59:58.416Z,26.7
2017-04-14T03:00:58.405Z,26.7
2017-04-14T03:01:58.392Z,26.7
2017-04-14T03:02:57.366Z,26.7
2017-04-14T03:03:58.520Z,26.7
2017-04-14T03:04:57.465Z,26.7
2017-04-14T03:05:58.641Z,26.7
2017-04-14T03:06:57.593Z,26.7
2017-04-14T03:07:58.595Z,26.7
2017-04-14T03:08:57.602Z,26.7
2017-04-14T03:09:57.695Z,26.6
2017-04-14T03:10:57.734Z,26.7
2017-04-14T03:11:58.772Z,26.7
2017-04-14T03:12:58.890Z,26.7
2017-04-14T03:13:59.016Z,26.7
2017-04-14T03:14:58.962Z,26.7
2017-04-14T03:15:59.004Z,26.6
2017-04-14T03:16:59.097Z,26.7
2017-04-14T03:17:58.039Z,26.7
2017-04-14T03:18:58.229Z,26.7
2017-04-14T03:19:59.278Z,26.7
2017-04-14T03:21:05.366Z,26.7
2017-04-14T03:21:59.495Z,26.7
2017-04-14T03:22:58.459Z,26.7
2017-04-14T03:23:58.489Z,26.7
2017-04-14T03:24:58.507Z,26.7
2017-04-14T03:25:59.565Z,26.7
2017-04-14T03:26:58.595Z,26.7
2017-04-14T03:27:58.597Z,26.7
2017-04-14T03:28:58.583Z,26.7
2017-04-14T03:29:58.693Z,26.7
2017-04-14T03:30:59.870Z,26.7
2017-04-14T03:31:59.863Z,26.7
2017-04-14T03:32:59.917Z,26.7
2017-04-14T03:33:59.011Z,26.7
2017-04-14T03:34:59.101Z,26.7
2017-04-14T03:35:59.057Z,26.7
2017-04-14T03:36:59.049Z,26.7
2017-04-14T03:37:59.209Z,26.7
2017-04-14T03:38:59.213Z,26.7
2017-04-14T03:39:59.332Z,26.7
2017-04-14T03:41:00.316Z,26.7
2017-04-14T03:41:59.268Z,26.7
2017-04-14T03:42:59.433Z,26.7
2017-04-14T03:44:00.491Z,26.7
2017-04-14T03:44:59.390Z,26.7
2017-04-14T03:45:59.492Z,26.7
2017-04-14T03:46:59.551Z,26.7
2017-04-14T03:47:59.553Z,26.7
2017-04-14T03:48:59.549Z,26.7
2017-04-14T03:49:59.632Z,26.7
2017-04-14T03:51:00.731Z,26.7
2017-04-14T03:52:00.781Z,26.7
2017-04-14T03:53:00.805Z,26.7
2017-04-14T03:54:00.783Z,26.7
2017-04-14T03:55:00.873Z,26.7
2017-04-14T03:55:59.883Z,26.7
2017-04-14T03:57:00.934Z,26.7
2017-04-14T03:58:34.221Z,26.7
2017-04-14T03:59:34.260Z,26.7
2017-04-14T04:00:34.280Z,26.7
2017-04-14T04:01:35.349Z,26.7
2017-04-14T04:02:34.456Z,26.7
2017-04-14T04:03:35.556Z,26.7
2017-04-14T04:04:35.574Z,26.7
2017-04-14T04:05:34.467Z,26.7
2017-04-14T04:06:34.552Z,26.7
2017-04-14T04:07:35.691Z,26.7
2017-04-14T04:08:35.720Z,26.7
2017-04-14T04:09:35.685Z,26.7
2017-04-14T04:10:35.739Z,26.7
2017-04-14T04:11:35.779Z,26.7
2017-04-14T04:12:35.789Z,26.7
2017-04-14T04:13:36.319Z,26.7
2017-04-14T04:14:35.976Z,26.7
2017-04-14T04:15:36.070Z,26.7
2017-04-14T04:16:35.085Z,26.7
2017-04-14T04:17:36.116Z,26.7
2017-04-14T04:18:35.048Z,26.7
2017-04-14T04:19:36.248Z,26.7
2017-04-14T04:20:35.246Z,26.7
2017-04-14T04:21:35.252Z,26.7
2017-04-14T04:22:35.232Z,26.7
2017-04-14T04:23:35.364Z,26.7
2017-04-14T04:24:36.342Z,26.7
2017-04-14T04:25:36.472Z,26.7
2017-04-14T04:26:35.485Z,26.7
2017-04-14T04:27:36.515Z,26.7
2017-04-14T04:28:35.555Z,26.7
2017-04-14T04:29:36.618Z,26.7
2017-04-14T04:30:35.628Z,26.6
2017-04-14T04:31:36.712Z,26.7
2017-04-14T04:32:35.756Z,26.7
2017-04-14T04:33:35.843Z,26.7
2017-04-14T04:34:35.795Z,26.7
2017-04-14T04:35:35.788Z,26.7
2017-04-14T04:36:36.919Z,26.7
2017-04-14T04:37:35.931Z,26.7
2017-04-14T04:38:36.979Z,26.6
2017-04-14T04:39:35.916Z,26.6
2017-04-14T04:40:36.037Z,26.7
2017-04-14T04:41:37.685Z,26.6
2017-04-14T04:42:36.058Z,26.6
2017-04-14T04:43:36.250Z,26.6
2017-04-14T04:44:36.298Z,26.6
2017-04-14T04:45:37.338Z,26.6
2017-04-14T04:46:36.934Z,26.6
2017-04-14T04:47:37.498Z,26.6
2017-04-14T04:48:37.527Z,26.6
2017-04-14T04:49:37.545Z,26.6
2017-04-14T04:50:36.563Z,26.6
2017-04-14T04:51:37.661Z,26.5
2017-04-14T04:52:36.890Z,26.5
2017-04-14T04:53:36.683Z,26.5
2017-04-14T04:54:36.719Z,26.5
2017-04-14T04:55:36.775Z,26.5
2017-04-14T04:56:36.837Z,26.5
2017-04-14T04:57:37.928Z,26.5
2017-04-14T04:58:38.234Z,26.5
2017-04-14T04:59:36.940Z,26.5
2017-04-14T05:00:38.143Z,26.5
2017-04-14T05:01:38.238Z,26.5
2017-04-14T05:02:37.185Z,26.5
2017-04-14T05:03:38.303Z,26.5
2017-04-14T05:04:37.651Z,26.5
2017-04-14T05:05:37.440Z,26.4
2017-04-14T05:06:38.584Z,26.4
2017-04-14T05:07:37.504Z,26.4
2017-04-14T05:08:38.671Z,26.4
2017-04-14T05:09:37.623Z,26.4
2017-04-14T05:10:37.799Z,26.4
2017-04-14T05:11:38.752Z,26.4
2017-04-14T05:12:38.790Z,26.4
2017-04-14T05:13:38.905Z,26.4
2017-04-14T05:14:37.836Z,26.4
2017-04-14T05:15:37.959Z,26.4
2017-04-14T05:16:38.178Z,26.4
2017-04-14T05:17:39.104Z,26.4
2017-04-14T05:18:38.166Z,26.4
2017-04-14T05:19:38.172Z,26.4
2017-04-14T05:20:39.301Z,26.4
2017-04-14T05:21:39.336Z,26.4
2017-04-14T05:22:38.443Z,26.4
2017-04-14T05:23:38.356Z,26.4
2017-04-14T05:24:39.521Z,26.4
2017-04-14T05:25:39.555Z,26.4
2017-04-14T05:26:38.545Z,26.4
2017-04-14T05:27:38.488Z,26.4
2017-04-14T05:28:39.980Z,26.4
2017-04-14T05:29:39.348Z,26.4
2017-04-14T05:30:39.253Z,26.4
2017-04-14T05:31:39.744Z,26.4
2017-04-14T05:32:38.876Z,26.4
2017-04-14T05:33:38.910Z,26.4
2017-04-14T05:34:38.995Z,26.4
2017-04-14T05:35:39.992Z,26.3
2017-04-14T05:36:40.006Z,26.3
2017-04-14T05:37:39.777Z,26.3
2017-04-14T05:38:39.045Z,26.3
2017-04-14T05:39:39.044Z,26.3
2017-04-14T05:40:40.523Z,26.3
2017-04-14T05:41:39.166Z,26.3
2017-04-14T05:42:40.420Z,26.3
2017-04-14T05:43:39.370Z,26.3
2017-04-14T05:44:39.344Z,26.3
2017-04-14T05:45:40.502Z,26.3
2017-04-14T05:46:40.663Z,26.3
2017-04-14T05:47:39.520Z,26.3
2017-04-14T05:48:39.529Z,26.3
2017-04-14T05:49:39.643Z,26.3
2017-04-14T05:50:39.716Z,26.3
2017-04-14T05:51:39.719Z,26.3
2017-04-14T05:52:39.917Z,26.2
2017-04-14T05:53:39.816Z,26.2
2017-04-14T05:54:39.937Z,26.2
2017-04-14T05:55:40.024Z,26.2
2017-04-14T05:56:40.115Z,26.2
2017-04-14T05:57:41.166Z,26.2
2017-04-14T05:58:40.408Z,26.2
2017-04-14T05:59:40.128Z,26.2
2017-04-14T06:00:40.238Z,26.2
2017-04-14T06:01:41.416Z,26.2
2017-04-14T06:02:40.281Z,26.2
2017-04-14T06:03:40.361Z,26.1
2017-04-14T06:04:40.579Z,26.1
2017-04-14T06:05:40.374Z,26.1
2017-04-14T06:06:40.454Z,26.1
2017-04-14T06:07:40.453Z,26.1
2017-04-14T06:08:40.510Z,26.1
2017-04-14T06:09:40.496Z,26.1
2017-04-14T06:10:41.846Z,26
2017-04-14T06:11:41.635Z,26
2017-04-14T06:12:41.712Z,26
2017-04-14T06:13:40.780Z,26
2017-04-14T06:14:41.865Z,26
2017-04-14T06:15:40.887Z,26
2017-04-14T06:16:42.108Z,25.9
2017-04-14T06:17:42.034Z,25.9
2017-04-14T06:18:42.008Z,25.9
2017-04-14T06:19:40.930Z,25.9
2017-04-14T06:20:40.943Z,25.9
2017-04-14T06:21:41.112Z,25.9
2017-04-14T06:22:42.449Z,25.8
2017-04-14T06:23:41.271Z,25.8
2017-04-14T06:24:42.357Z,25.8
2017-04-14T06:25:41.389Z,25.8
2017-04-14T06:26:41.368Z,25.8
2017-04-14T06:27:41.511Z,25.7
2017-04-14T06:28:42.667Z,25.7
2017-04-14T06:29:41.516Z,25.7
2017-04-14T06:30:41.613Z,25.7
2017-04-14T06:31:41.527Z,25.7
2017-04-14T06:32:41.688Z,25.6
2017-04-14T06:33:42.763Z,25.6
2017-04-14T06:34:41.813Z,25.6
2017-04-14T06:35:42.860Z,25.6
2017-04-14T06:36:42.897Z,25.6
2017-04-14T06:37:41.874Z,25.6
2017-04-14T06:38:42.885Z,25.6
2017-04-14T06:39:41.865Z,25.6
2017-04-14T06:40:42.305Z,25.6
2017-04-14T06:41:41.941Z,25.7
2017-04-14T06:42:43.081Z,25.7
2017-04-14T06:43:43.154Z,25.7
2017-04-14T06:44:42.147Z,25.7
2017-04-14T06:45:43.221Z,25.7
2017-04-14T06:46:43.420Z,25.7
2017-04-14T06:47:42.290Z,25.7
2017-04-14T06:48:43.449Z,25.7
2017-04-14T06:49:42.372Z,25.7
2017-04-14T06:50:42.390Z,25.7
2017-04-14T06:51:43.557Z,25.7
2017-04-14T06:52:43.779Z,25.7
2017-04-14T06:53:42.544Z,25.7
2017-04-14T06:54:43.693Z,25.7
2017-04-14T06:55:42.648Z,25.7
2017-04-14T06:56:43.677Z,25.7
2017-04-14T06:57:43.799Z,25.7
2017-04-14T06:58:42.830Z,25.7
2017-04-14T06:59:43.773Z,25.7
2017-04-14T07:00:42.874Z,25.7
2017-04-14T07:01:43.969Z,25.7
2017-04-14T07:02:43.946Z,25.7
2017-04-14T07:03:44.015Z,25.7
2017-04-14T07:04:44.347Z,25.7
2017-04-14T07:05:43.097Z,25.8
2017-04-14T07:06:43.029Z,25.8
2017-04-14T07:07:44.116Z,25.8
2017-04-14T07:08:43.049Z,25.8
2017-04-14T07:09:44.272Z,25.8
2017-04-14T07:10:43.395Z,25.8
2017-04-14T07:11:44.375Z,25.8
2017-04-14T07:12:44.438Z,25.8
2017-04-14T07:13:43.408Z,25.8
2017-04-14T07:14:44.394Z,25.8
2017-04-14T07:15:43.429Z,25.8
2017-04-14T07:16:44.766Z,25.8
2017-04-14T07:17:44.679Z,25.8
2017-04-14T07:18:43.568Z,25.8
2017-04-14T07:19:43.702Z,25.8
2017-04-14T07:20:44.682Z,25.8
2017-04-14T07:21:44.778Z,25.8
2017-04-14T07:22:44.979Z,25.8
2017-04-14T07:23:43.750Z,25.8
2017-04-14T07:24:44.859Z,25.8
2017-04-14T07:25:44.938Z,25.8
2017-04-14T07:26:44.962Z,25.8
2017-04-14T07:27:44.020Z,25.8
2017-04-14T07:28:44.207Z,25.8
2017-04-14T07:29:45.055Z,25.8
2017-04-14T07:30:45.055Z,25.8
2017-04-14T07:31:45.155Z,25.8
2017-04-14T07:32:44.194Z,25.8
2017-04-14T07:33:44.903Z,25.8
2017-04-14T07:34:45.470Z,25.8
2017-04-14T07:35:44.964Z,25.8
2017-04-14T07:36:44.363Z,25.8
2017-04-14T07:37:45.582Z,25.8
2017-04-14T07:38:44.482Z,25.8
2017-04-14T07:39:44.574Z,25.8
2017-04-14T07:40:44.841Z,25.8
2017-04-14T07:41:45.781Z,25.8
2017-04-14T07:42:45.851Z,25.8
2017-04-14T07:43:44.736Z,25.8
2017-04-14T07:44:44.762Z,25.8
2017-04-14T07:45:45.916Z,25.8
2017-04-14T07:46:45.115Z,25.8
2017-04-14T07:47:45.977Z,25.8
2017-04-14T07:48:46.070Z,25.8
2017-04-14T07:49:45.011Z,25.8
2017-04-14T07:50:46.175Z,25.8
2017-04-14T07:51:46.186Z,25.8
2017-04-14T07:52:45.431Z,25.8
2017-04-14T07:53:46.389Z,25.8
2017-04-14T07:54:46.372Z,25.8
2017-04-14T07:55:45.413Z,25.8
2017-04-14T07:56:45.402Z,25.8
2017-04-14T07:57:45.504Z,25.8
2017-04-14T07:58:45.681Z,25.8
2017-04-14T07:59:46.664Z,25.8
2017-04-14T08:00:46.750Z,25.8
2017-04-14T08:01:45.742Z,25.7
2017-04-14T08:02:45.850Z,25.7
2017-04-14T08:03:45.845Z,25.7
2017-04-14T08:04:47.129Z,25.7
2017-04-14T08:05:47.063Z,25.7
2017-04-14T08:06:47.053Z,25.7
2017-04-14T08:07:46.044Z,25.6
2017-04-14T08:08:46.066Z,25.6
2017-04-14T08:09:46.163Z,25.6
2017-04-14T08:10:46.416Z,25.6
2017-04-14T08:11:46.296Z,25.6
2017-04-14T08:12:47.353Z,25.6
2017-04-14T08:13:46.380Z,25.6
2017-04-14T08:14:47.617Z,25.6
2017-04-14T08:15:46.496Z,25.6
2017-04-14T08:16:47.846Z,25.6
2017-04-14T08:17:47.688Z,25.6
2017-04-14T08:18:46.734Z,25.6
2017-04-14T08:19:47.838Z,25.6
2017-04-14T08:20:47.919Z,25.6
2017-04-14T08:21:48.541Z,25.6
2017-04-14T08:22:47.373Z,25.6
2017-04-14T08:23:47.089Z,25.6
2017-04-14T08:24:47.125Z,25.6
2017-04-14T08:25:47.110Z,25.6
2017-04-14T08:26:48.249Z,25.6
2017-04-14T08:27:47.271Z,25.6
2017-04-14T08:28:48.504Z,25.6
2017-04-14T08:29:48.317Z,25.6
2017-04-14T08:30:48.429Z,25.6
2017-04-14T08:31:47.283Z,25.6
2017-04-14T08:32:48.537Z,25.6
2017-04-14T08:33:47.568Z,25.5
2017-04-14T08:34:47.758Z,25.5
2017-04-14T08:35:48.721Z,25.5
2017-04-14T08:36:47.589Z,25.5
2017-04-14T08:37:47.628Z,25.5
2017-04-14T08:38:47.730Z,25.6
2017-04-14T08:39:47.782Z,25.6
2017-04-14T08:40:49.247Z,25.6
2017-04-14T08:41:47.906Z,25.6
2017-04-14T08:42:47.897Z,25.6
2017-04-14T08:43:49.157Z,25.6
2017-04-14T08:44:48.056Z,25.6
2017-04-14T08:45:48.062Z,25.6
2017-04-14T08:46:49.449Z,25.6
2017-04-14T08:47:49.260Z,25.6
2017-04-14T08:48:49.357Z,25.6
2017-04-14T08:49:48.296Z,25.6
2017-04-14T08:50:48.396Z,25.6
2017-04-14T08:51:49.508Z,25.6
2017-04-14T08:52:49.817Z,25.6
2017-04-14T08:53:49.660Z,25.6
2017-04-14T08:54:48.617Z,25.6
2017-04-14T08:55:48.656Z,25.6
2017-04-14T08:56:48.776Z,25.6
2017-04-14T08:57:48.802Z,25.6
2017-04-14T08:58:49.000Z,25.6
2017-04-14T08:59:50.013Z,25.6
2017-04-14T09:00:50.041Z,25.6
2017-04-14T09:01:50.041Z,25.5
2017-04-14T09:02:50.099Z,25.5
2017-04-14T09:03:49.079Z,25.5
2017-04-14T09:04:49.280Z,25.5
2017-04-14T09:05:50.292Z,25.5
2017-04-14T09:06:49.354Z,25.5
2017-04-14T09:07:50.401Z,25.5
2017-04-14T09:08:49.406Z,25.5
2017-04-14T09:09:49.538Z,25.5
2017-04-14T09:10:49.632Z,25.5
2017-04-14T09:11:49.622Z,25.5
2017-04-14T09:12:50.758Z,25.5
2017-04-14T09:13:50.785Z,25.5
2017-04-14T09:14:49.700Z,25.5
2017-04-14T09:15:50.908Z,25.5
2017-04-14T09:16:51.160Z,25.5
2017-04-14T09:17:50.988Z,25.5
2017-04-14T09:18:49.975Z,25.5
2017-04-14T09:19:51.108Z,25.5
2017-04-14T09:20:50.143Z,25.5
2017-04-14T09:21:51.240Z,25.5
2017-04-14T09:22:51.469Z,25.5
2017-04-14T09:23:50.211Z,25.5
2017-04-14T09:24:50.177Z,25.5
2017-04-14T09:25:51.324Z,25.5
2017-04-14T09:26:50.414Z,25.5
2017-04-14T09:27:51.493Z,25.5
2017-04-14T09:28:50.599Z,25.5
2017-04-14T09:29:50.398Z,25.5
2017-04-14T09:30:50.537Z,25.5
2017-04-14T09:31:50.524Z,25.5
2017-04-14T09:32:51.581Z,25.5
2017-04-14T09:33:51.591Z,25.5
2017-04-14T09:34:51.807Z,25.5
2017-04-14T09:35:50.552Z,25.5
2017-04-14T09:36:51.740Z,25.5
2017-04-14T09:37:51.726Z,25.5
2017-04-14T09:38:50.806Z,25.5
2017-04-14T09:39:51.944Z,25.5
2017-04-14T09:40:52.156Z,25.5
2017-04-14T09:41:53.329Z,25.5
2017-04-14T09:42:50.987Z,25.4
2017-04-14T09:43:52.125Z,25.5
2017-04-14T09:44:52.884Z,25.5
2017-04-14T09:45:51.179Z,25.5
2017-04-14T09:46:51.374Z,25.4
2017-04-14T09:47:52.381Z,25.4
2017-04-14T09:48:51.217Z,25.4
2017-04-14T09:49:52.927Z,25.4
2017-04-14T09:50:52.386Z,25.4
2017-04-14T09:51:51.334Z,25.4
2017-04-14T09:52:52.662Z,25.4
2017-04-14T09:53:52.529Z,25.4
2017-04-14T09:54:51.501Z,25.4
2017-04-14T09:55:52.590Z,25.4
2017-04-14T09:56:51.666Z,25.4
2017-04-14T09:57:51.879Z,25.4
2017-04-14T09:58:51.674Z,25.4
2017-04-14T09:59:52.867Z,25.4
2017-04-14T10:00:52.893Z,25.4
2017-04-14T10:01:52.913Z,25.3
2017-04-14T10:02:53.073Z,25.3
2017-04-14T10:03:52.223Z,25.3
2017-04-14T10:04:53.131Z,25.3
2017-04-14T10:05:52.099Z,25.3
2017-04-14T10:06:53.131Z,25.3
2017-04-14T10:07:53.199Z,25.3
2017-04-14T10:08:53.343Z,25.3
2017-04-14T10:09:53.616Z,25.3
2017-04-14T10:10:52.293Z,25.2
2017-04-14T10:11:52.407Z,25.2
2017-04-14T10:12:53.489Z,25.2
2017-04-14T10:13:52.519Z,25.2
2017-04-14T10:14:53.694Z,25.2
2017-04-14T10:15:52.733Z,25.2
2017-04-14T10:16:53.753Z,25.2
2017-04-14T10:17:53.874Z,25.2
2017-04-14T10:18:53.886Z,25.2
2017-04-14T10:19:52.886Z,25.2
2017-04-14T10:20:52.924Z,25.2
2017-04-14T10:21:53.107Z,25.2
2017-04-14T10:22:53.048Z,25.2
2017-04-14T10:23:53.087Z,25.2
2017-04-14T10:24:54.281Z,25.2
2017-04-14T10:25:54.838Z,25.2
2017-04-14T10:26:54.308Z,25.2
2017-04-14T10:27:54.743Z,25.2
2017-04-14T10:28:54.447Z,25.2
2017-04-14T10:29:54.578Z,25.2
2017-04-14T10:30:54.641Z,25.2
2017-04-14T10:31:53.666Z,25.2
2017-04-14T10:32:54.823Z,25.2
2017-04-14T10:33:54.971Z,25.2
2017-04-14T10:34:54.886Z,25.2
2017-04-14T10:35:53.901Z,25.2
2017-04-14T10:36:54.931Z,25.2
2017-04-14T10:37:55.046Z,25.2
2017-04-14T10:38:54.089Z,25.2
2017-04-14T10:39:55.285Z,25.2
2017-04-14T10:40:54.711Z,25.2
2017-04-14T10:41:54.128Z,25.1
2017-04-14T10:42:55.323Z,25.1
2017-04-14T10:43:55.301Z,25.1
2017-04-14T10:44:55.380Z,25.1
2017-04-14T10:45:54.468Z,25.1
2017-04-14T10:46:55.463Z,25.1
2017-04-14T10:47:54.466Z,25.1
2017-04-14T10:48:55.581Z,25.1
2017-04-14T10:49:55.658Z,25.1
2017-04-14T10:50:55.717Z,25.1
2017-04-14T10:51:54.783Z,25.1
2017-04-14T10:52:54.709Z,25.1
2017-04-14T10:53:55.913Z,25.1
2017-04-14T10:54:55.994Z,25
2017-04-14T10:55:54.945Z,25
2017-04-14T10:56:56.028Z,25
2017-04-14T10:57:56.382Z,25
2017-04-14T10:58:55.184Z,25
2017-04-14T10:59:56.185Z,25
2017-04-14T11:00:56.296Z,25
2017-04-14T11:01:55.184Z,25
2017-04-14T11:02:56.312Z,24.9
2017-04-14T11:03:56.476Z,24.9
2017-04-14T11:04:56.458Z,24.9
2017-04-14T11:05:55.348Z,24.9
2017-04-14T11:06:55.458Z,24.9
2017-04-14T11:07:55.486Z,24.9
2017-04-14T11:08:56.801Z,24.9
2017-04-14T11:09:56.667Z,24.8
2017-04-14T11:10:55.626Z,24.8
2017-04-14T11:11:55.790Z,24.8
2017-04-14T11:12:55.835Z,24.8
2017-04-14T11:13:56.002Z,24.8
2017-04-14T11:14:57.243Z,24.7
2017-04-14T11:15:56.018Z,24.7
2017-04-14T11:16:57.237Z,24.6
2017-04-14T11:17:56.201Z,24.6
2017-04-14T11:18:57.294Z,24.5
2017-04-14T11:19:57.385Z,24.5
2017-04-14T11:20:57.546Z,24.4
2017-04-14T11:21:57.411Z,24.2
2017-04-14T11:22:56.397Z,24
2017-04-14T11:23:57.638Z,23.9
2017-04-14T11:24:56.530Z,23.8
2017-04-14T11:25:56.705Z,23.8
2017-04-14T11:26:57.741Z,23.7
2017-04-14T11:27:57.843Z,23.7
2017-04-14T11:28:56.847Z,23.7
2017-04-14T11:29:56.777Z,23.7
2017-04-14T11:30:56.862Z,23.7
2017-04-14T11:31:58.015Z,23.8
2017-04-14T11:32:57.053Z,23.8
2017-04-14T11:33:56.920Z,23.8
2017-04-14T11:34:57.082Z,23.9
2017-04-14T11:35:57.143Z,23.9
2017-04-14T11:36:57.114Z,24
2017-04-14T11:37:58.225Z,24
2017-04-14T11:38:58.383Z,24.1
2017-04-14T11:39:57.351Z,24.2
2017-04-14T11:40:57.468Z,24.2
2017-04-14T11:41:57.398Z,24.3
2017-04-14T11:42:57.493Z,24.3
2017-04-14T11:43:58.585Z,24.4
2017-04-14T11:44:58.655Z,24.4
2017-04-14T11:45:58.695Z,24.5
2017-04-14T11:46:58.797Z,24.5
2017-04-14T11:47:57.715Z,24.5
2017-04-14T11:48:57.763Z,24.6
2017-04-14T11:49:58.927Z,24.6
2017-04-14T11:50:59.037Z,24.6
2017-04-14T11:51:59.053Z,24.7
2017-04-14T11:52:58.135Z,24.7
2017-04-14T11:53:58.116Z,24.7
2017-04-14T11:54:59.232Z,24.8
2017-04-14T11:55:58.163Z,24.8
2017-04-14T11:56:59.300Z,24.8
2017-04-14T11:57:59.382Z,24.9
2017-04-14T11:58:59.511Z,24.9
2017-04-14T11:59:58.543Z,24.9
2017-04-14T12:00:59.549Z,25
2017-04-14T12:01:58.681Z,25
2017-04-14T12:02:59.727Z,25
2017-04-14T12:03:58.791Z,25
2017-04-14T12:04:59.813Z,25.1
2017-04-14T12:05:59.885Z,25.1
2017-04-14T12:06:58.844Z,25.1
2017-04-14T12:07:59.019Z,25.1
2017-04-14T12:09:00.050Z,25.1
2017-04-14T12:09:59.049Z,25.1
2017-04-14T12:11:00.158Z,25.1
2017-04-14T12:12:00.234Z,25.1
2017-04-14T12:13:00.410Z,25.2
2017-04-14T12:14:00.450Z,25.2
2017-04-14T12:14:59.560Z,25.2
2017-04-14T12:16:00.613Z,25.2
2017-04-14T12:16:59.631Z,25.2
2017-04-14T12:18:00.609Z,25.2
2017-04-14T12:18:59.681Z,25.2
2017-04-14T12:20:00.819Z,25.2
2017-04-14T12:20:59.669Z,25.2
2017-04-14T12:22:00.768Z,25.2
2017-04-14T12:22:59.870Z,25.2
2017-04-14T12:23:59.824Z,25.2
2017-04-14T12:25:01.003Z,25.2
2017-04-14T12:25:59.925Z,25.2
2017-04-14T12:27:00.060Z,25.2
2017-04-14T12:27:59.982Z,25.3
2017-04-14T12:29:01.128Z,25.3
2017-04-14T12:30:01.233Z,25.3
2017-04-14T12:31:01.345Z,25.3
2017-04-14T12:32:00.254Z,25.3
2017-04-14T12:33:01.394Z,25.3
2017-04-14T12:34:00.376Z,25.3
2017-04-14T12:35:00.444Z,25.3
2017-04-14T12:36:00.461Z,25.3
2017-04-14T12:37:01.149Z,25.3
2017-04-14T12:38:01.863Z,25.3
2017-04-14T12:39:01.792Z,25.3
2017-04-14T12:40:01.867Z,25.3
2017-04-14T12:41:00.795Z,25.4
2017-04-14T12:42:01.929Z,25.4
2017-04-14T12:43:02.106Z,25.4
2017-04-14T12:44:01.197Z,25.4
2017-04-14T12:45:02.188Z,25.4
2017-04-14T12:46:02.126Z,25.4
2017-04-14T12:47:02.225Z,25.4
2017-04-14T12:48:02.254Z,25.4
2017-04-14T12:49:01.307Z,25.4
2017-04-14T12:50:02.556Z,25.4
2017-04-14T12:51:02.459Z,25.4
2017-04-14T12:52:02.520Z,25.4
2017-04-14T12:53:02.559Z,25.4
2017-04-14T12:54:02.493Z,25.4
2017-04-14T12:55:01.611Z,25.4
2017-04-14T12:56:01.699Z,25.4
2017-04-14T12:57:02.637Z,25.5
2017-04-14T12:58:01.604Z,25.5
2017-04-14T12:59:02.706Z,25.5
2017-04-14T13:00:01.589Z,25.5
2017-04-14T13:01:01.740Z,25.5
2017-04-14T13:02:02.969Z,25.5
2017-04-14T13:03:02.918Z,25.5
2017-04-14T13:04:02.840Z,25.5
2017-04-14T13:05:02.868Z,25.5
2017-04-14T13:06:01.827Z,25.5
2017-04-14T13:07:01.980Z,25.5
2017-04-14T13:08:03.145Z,25.5
2017-04-14T13:09:03.112Z,25.5
2017-04-14T13:10:01.976Z,25.5
2017-04-14T13:11:03.077Z,25.5
2017-04-14T13:12:02.040Z,25.5
2017-04-14T13:13:03.128Z,25.5
2017-04-14T13:14:03.350Z,25.5
2017-04-14T13:15:02.132Z,25.5
2017-04-14T13:16:03.312Z,25.5
2017-04-14T13:17:02.330Z,25.5
2017-04-14T13:18:02.406Z,25.5
2017-04-14T13:19:03.476Z,25.5
2017-04-14T13:20:03.612Z,25.5
2017-04-14T13:21:03.549Z,25.5